createdAt,value
2023-02-19T00:00:55.138Z,0.10
2023-02-19T00:01:55.990Z,0.20
2023-02-19T00:02:56.861Z,0.10
2023-02-19T00:03:57.637Z,0.20
2023-02-19T00:04:58.508Z,0.20
2023-02-19T00:05:59.371Z,0.20
2023-02-19T00:07:00.217Z,0.20
2023-02-19T00:08:01.071Z,0.20
2023-02-19T00:09:01.921Z,0.20
2023-02-19T00:10:02.785Z,0.20
2023-02-19T00:11:04.116Z,0.20
2023-02-19T00:12:04.469Z,0.10
2023-02-19T00:13:05.365Z,0.20
2023-02-19T00:14:06.185Z,0.20
2023-02-19T00:15:07.038Z,0.20
2023-02-19T00:16:07.976Z,0.20
2023-02-19T00:17:08.778Z,0.20
2023-02-19T00:18:09.694Z,0.10
2023-02-19T00:19:10.484Z,0.20
2023-02-19T00:20:11.332Z,0.20
2023-02-19T00:21:12.795Z,0.20
2023-02-19T00:22:13.157Z,0.20
2023-02-19T00:23:14.009Z,0.20
2023-02-19T00:24:14.869Z,0.20
2023-02-19T00:25:15.718Z,0.20
2023-02-19T00:26:18.797Z,0.20
2023-02-19T00:27:17.257Z,0.20
2023-02-19T00:28:18.142Z,0.20
2023-02-19T00:29:18.977Z,0.20
2023-02-19T00:30:19.853Z,0.20
2023-02-19T00:31:20.931Z,0.20
2023-02-19T00:32:21.293Z,0.20
2023-02-19T00:33:22.124Z,0.20
2023-02-19T00:34:22.894Z,0.20
2023-02-19T00:35:23.746Z,0.20
2023-02-19T00:36:24.638Z,0.30
2023-02-19T00:37:25.484Z,0.20
2023-02-19T00:38:26.337Z,0.20
2023-02-19T00:39:27.213Z,0.20
2023-02-19T00:40:28.061Z,0.20
2023-02-19T00:41:29.118Z,0.20
2023-02-19T00:42:29.473Z,0.10
2023-02-19T00:43:30.356Z,0.20
2023-02-19T00:44:31.199Z,0.20
2023-02-19T00:45:33.070Z,0.20
2023-02-19T00:46:33.150Z,0.20
2023-02-19T00:47:33.470Z,0.20
2023-02-19T00:48:34.341Z,0.20
2023-02-19T00:49:35.123Z,0.20
2023-02-19T00:50:35.984Z,0.20
2023-02-19T00:51:37.168Z,0.20
2023-02-19T00:52:37.480Z,0.10
2023-02-19T00:53:38.354Z,0.20
2023-02-19T00:54:39.247Z,0.20
2023-02-19T00:55:40.099Z,0.20
2023-02-19T00:56:41.114Z,0.20
2023-02-19T00:57:41.465Z,0.20
2023-02-19T00:58:42.350Z,0.20
2023-02-19T00:59:43.178Z,0.20
2023-02-19T01:00:44.038Z,0.20
2023-02-19T01:01:45.085Z,0.20
2023-02-19T01:02:45.410Z,0.20
2023-02-19T01:03:46.277Z,0.30
2023-02-19T01:04:47.070Z,0.20
2023-02-19T01:05:47.904Z,0.20
2023-02-19T01:06:48.798Z,0.20
2023-02-19T01:07:49.636Z,0.20
2023-02-19T01:08:50.514Z,0.20
2023-02-19T01:09:51.358Z,0.20
2023-02-19T01:10:52.214Z,0.20
2023-02-19T01:11:53.109Z,0.20
2023-02-19T01:12:53.964Z,0.20
2023-02-19T01:13:54.836Z,0.20
2023-02-19T01:14:55.672Z,0.20
2023-02-19T01:15:56.536Z,0.20
2023-02-19T01:16:57.606Z,0.20
2023-02-19T01:17:57.979Z,0.20
2023-02-19T01:18:58.851Z,0.20
2023-02-19T01:19:59.629Z,0.20
2023-02-19T01:21:00.483Z,0.20
2023-02-19T01:22:01.616Z,0.20
2023-02-19T01:23:01.979Z,0.20
2023-02-19T01:24:02.853Z,0.20
2023-02-19T01:25:03.705Z,0.20
2023-02-19T01:26:04.562Z,0.20
2023-02-19T01:27:05.611Z,0.20
2023-02-19T01:28:05.960Z,0.20
2023-02-19T01:29:06.841Z,0.20
2023-02-19T01:30:07.699Z,0.20
2023-02-19T01:31:08.951Z,0.20
2023-02-19T01:32:09.950Z,0.20
2023-02-19T01:33:10.327Z,0.20
2023-02-19T01:34:11.214Z,0.20
2023-02-19T01:35:11.991Z,0.20
2023-02-19T01:36:12.848Z,0.20
2023-02-19T01:37:14.110Z,0.20
2023-02-19T01:38:14.470Z,0.20
2023-02-19T01:39:15.332Z,0.20
2023-02-19T01:40:16.181Z,0.20
2023-02-19T01:41:17.046Z,0.20
2023-02-19T01:42:18.106Z,0.20
2023-02-19T01:43:18.479Z,0.10
2023-02-19T01:44:19.341Z,0.20
2023-02-19T01:45:20.185Z,0.20
2023-02-19T01:46:21.146Z,0.20
2023-02-19T01:47:22.122Z,0.20
2023-02-19T01:48:22.474Z,0.20
2023-02-19T01:49:23.349Z,0.20
2023-02-19T01:50:24.135Z,0.20
2023-02-19T01:51:24.982Z,0.20
2023-02-19T01:52:26.105Z,0.20
2023-02-19T01:53:26.463Z,0.20
2023-02-19T01:54:27.311Z,0.20
2023-02-19T01:55:28.163Z,0.20
2023-02-19T01:56:29.019Z,0.10
2023-02-19T01:57:29.876Z,0.10
2023-02-19T01:58:30.751Z,0.20
2023-02-19T01:59:31.681Z,0.20
2023-02-19T02:00:32.535Z,0.20
2023-02-19T02:01:33.391Z,0.20
2023-02-19T02:02:34.605Z,0.10
2023-02-19T02:03:34.962Z,0.20
2023-02-19T02:04:35.854Z,0.20
2023-02-19T02:05:36.629Z,0.20
2023-02-19T02:06:37.484Z,0.20
2023-02-19T02:07:38.614Z,0.20
2023-02-19T02:08:38.968Z,0.20
2023-02-19T02:09:39.852Z,0.20
2023-02-19T02:10:40.705Z,0.10
2023-02-19T02:11:41.546Z,0.20
2023-02-19T02:12:42.411Z,0.20
2023-02-19T02:13:43.272Z,0.20
2023-02-19T02:14:44.146Z,0.20
2023-02-19T02:15:44.986Z,0.20
2023-02-19T02:16:45.830Z,0.20
2023-02-19T02:17:47.106Z,0.20
2023-02-19T02:18:47.464Z,0.20
2023-02-19T02:19:48.330Z,0.10
2023-02-19T02:20:49.107Z,0.20
2023-02-19T02:21:49.960Z,0.30
2023-02-19T02:22:50.838Z,0.20
2023-02-19T02:23:51.683Z,0.20
2023-02-19T02:24:52.533Z,0.10
2023-02-19T02:25:53.395Z,0.20
2023-02-19T02:26:54.253Z,0.20
2023-02-19T02:27:55.606Z,0.20
2023-02-19T02:28:55.964Z,0.20
2023-02-19T02:29:56.837Z,0.20
2023-02-19T02:30:57.802Z,0.20
2023-02-19T02:31:58.763Z,0.20
2023-02-19T02:32:59.620Z,0.20
2023-02-19T02:33:59.994Z,0.20
2023-02-19T02:35:00.887Z,0.20
2023-02-19T02:36:01.786Z,0.20
2023-02-19T02:37:02.637Z,0.20
2023-02-19T02:38:03.500Z,0.20
2023-02-19T02:39:04.360Z,0.20
2023-02-19T02:40:05.203Z,0.20
2023-02-19T02:41:06.055Z,0.20
2023-02-19T02:42:06.907Z,0.20
2023-02-19T02:43:08.106Z,0.20
2023-02-19T02:44:08.457Z,0.20
2023-02-19T02:45:09.311Z,0.20
2023-02-19T02:46:10.162Z,0.20
2023-02-19T02:47:11.020Z,0.20
2023-02-19T02:48:11.887Z,0.20
2023-02-19T02:49:12.736Z,0.10
2023-02-19T02:50:13.608Z,0.20
2023-02-19T02:51:14.384Z,0.20
2023-02-19T02:52:15.253Z,0.20
2023-02-19T02:53:16.113Z,0.20
2023-02-19T02:54:16.992Z,0.10
2023-02-19T02:55:17.852Z,0.20
2023-02-19T02:56:18.711Z,0.20
2023-02-19T02:57:19.576Z,0.20
2023-02-19T02:58:20.428Z,0.20
2023-02-19T02:59:21.280Z,0.10
2023-02-19T03:00:22.134Z,0.10
2023-02-19T03:01:23.137Z,0.20
2023-02-19T03:02:23.521Z,0.20
2023-02-19T03:03:24.367Z,0.20
2023-02-19T03:04:25.209Z,0.20
2023-02-19T03:05:26.078Z,0.20
2023-02-19T03:06:26.850Z,416.60
2023-02-19T03:07:27.703Z,419.20
2023-02-19T03:08:28.575Z,448.20
2023-02-19T03:09:29.421Z,410.20
2023-02-19T03:10:30.289Z,444.50
2023-02-19T03:11:31.153Z,461.60
2023-02-19T03:12:32.013Z,431.80
2023-02-19T03:13:33.103Z,455.10
2023-02-19T03:14:33.463Z,459.30
2023-02-19T03:15:34.317Z,459.40
2023-02-19T03:16:35.217Z,474.90
2023-02-19T03:17:36.031Z,470.20
2023-02-19T03:18:37.107Z,464.70
2023-02-19T03:19:37.472Z,477.00
2023-02-19T03:20:38.345Z,467.10
2023-02-19T03:21:39.116Z,454.40
2023-02-19T03:22:39.973Z,497.20
2023-02-19T03:23:41.100Z,457.50
2023-02-19T03:24:41.459Z,460.80
2023-02-19T03:25:42.308Z,466.40
2023-02-19T03:26:43.158Z,444.10
2023-02-19T03:27:44.015Z,445.80
2023-02-19T03:28:45.099Z,429.50
2023-02-19T03:29:45.461Z,462.60
2023-02-19T03:30:46.318Z,457.10
2023-02-19T03:31:47.310Z,421.20
2023-02-19T03:32:48.134Z,406.40
2023-02-19T03:33:49.007Z,405.10
2023-02-19T03:34:49.872Z,421.70
2023-02-19T03:35:50.731Z,417.50
2023-02-19T03:36:51.525Z,399.20
2023-02-19T03:37:52.369Z,325.20
2023-02-19T03:38:53.598Z,412.30
2023-02-19T03:39:53.959Z,379.60
2023-02-19T03:40:54.808Z,390.40
2023-02-19T03:41:55.714Z,375.80
2023-02-19T03:42:56.549Z,386.00
2023-02-19T03:43:57.620Z,369.00
2023-02-19T03:44:57.959Z,391.10
2023-02-19T03:45:58.877Z,384.90
2023-02-19T03:46:59.674Z,353.40
2023-02-19T03:48:00.540Z,346.30
2023-02-19T03:49:01.396Z,357.10
2023-02-19T03:50:02.262Z,338.70
2023-02-19T03:51:03.140Z,356.10
2023-02-19T03:52:03.934Z,351.00
2023-02-19T03:53:04.792Z,333.80
2023-02-19T03:54:06.101Z,340.30
2023-02-19T03:55:06.458Z,333.50
2023-02-19T03:56:07.315Z,348.70
2023-02-19T03:57:08.203Z,335.80
2023-02-19T03:58:09.031Z,294.20
2023-02-19T03:59:10.100Z,373.50
2023-02-19T04:00:10.458Z,1999.90
2023-02-19T04:01:11.828Z,289.00
2023-02-19T04:02:12.278Z,271.70
2023-02-19T04:03:13.095Z,216.60
2023-02-19T04:04:13.953Z,264.10
2023-02-19T04:05:14.808Z,260.30
2023-02-19T04:06:15.682Z,280.40
2023-02-19T04:07:16.468Z,257.60
2023-02-19T04:08:17.323Z,229.40
2023-02-19T04:09:18.601Z,194.10
2023-02-19T04:10:18.971Z,244.20
2023-02-19T04:11:19.816Z,225.00
2023-02-19T04:12:20.674Z,240.80
2023-02-19T04:13:21.564Z,227.20
2023-02-19T04:14:22.601Z,234.90
2023-02-19T04:15:22.959Z,256.20
2023-02-19T04:16:23.997Z,226.00
2023-02-19T04:17:24.809Z,238.70
2023-02-19T04:18:25.686Z,254.30
2023-02-19T04:19:26.600Z,245.30
2023-02-19T04:20:27.456Z,237.80
2023-02-19T04:21:28.329Z,250.10
2023-02-19T04:22:29.105Z,235.10
2023-02-19T04:23:29.964Z,231.90
2023-02-19T04:24:30.821Z,236.80
2023-02-19T04:25:31.671Z,245.40
2023-02-19T04:26:32.522Z,234.90
2023-02-19T04:27:33.373Z,243.40
2023-02-19T04:28:34.224Z,278.10
2023-02-19T04:29:35.353Z,233.40
2023-02-19T04:30:35.679Z,237.40
2023-02-19T04:31:36.591Z,241.80
2023-02-19T04:32:37.413Z,239.10
2023-02-19T04:33:38.271Z,230.20
2023-02-19T04:34:39.609Z,240.60
2023-02-19T04:35:39.968Z,239.60
2023-02-19T04:36:40.838Z,234.10
2023-02-19T04:37:41.616Z,240.40
2023-02-19T04:38:42.470Z,233.70
2023-02-19T04:39:43.603Z,229.70
2023-02-19T04:40:43.957Z,217.80
2023-02-19T04:41:44.827Z,243.70
2023-02-19T04:42:45.684Z,255.40
2023-02-19T04:43:46.530Z,213.60
2023-02-19T04:44:47.393Z,244.50
2023-02-19T04:45:48.244Z,262.30
2023-02-19T04:46:49.103Z,251.80
2023-02-19T04:47:49.954Z,218.20
2023-02-19T04:48:50.812Z,234.00
2023-02-19T04:49:52.093Z,244.20
2023-02-19T04:50:52.447Z,256.20
2023-02-19T04:51:53.330Z,249.80
2023-02-19T04:52:54.169Z,255.40
2023-02-19T04:53:55.021Z,235.10
2023-02-19T04:54:56.093Z,227.50
2023-02-19T04:55:56.443Z,236.10
2023-02-19T04:56:57.301Z,249.30
2023-02-19T04:57:58.165Z,237.70
2023-02-19T04:58:59.009Z,231.10
2023-02-19T05:00:00.124Z,242.80
2023-02-19T05:01:00.459Z,214.60
2023-02-19T05:02:01.336Z,217.20
2023-02-19T05:03:02.187Z,222.10
2023-02-19T05:04:03.079Z,218.90
2023-02-19T05:05:04.089Z,230.00
2023-02-19T05:06:04.443Z,226.70
2023-02-19T05:07:05.316Z,225.90
2023-02-19T05:08:06.104Z,233.80
2023-02-19T05:09:06.968Z,225.20
2023-02-19T05:10:08.091Z,224.20
2023-02-19T05:11:08.799Z,228.90
2023-02-19T05:12:09.324Z,228.00
2023-02-19T05:13:10.206Z,226.20
2023-02-19T05:14:11.029Z,243.80
2023-02-19T05:15:12.089Z,264.70
2023-02-19T05:16:12.508Z,262.70
2023-02-19T05:17:13.316Z,269.40
2023-02-19T05:18:14.179Z,262.80
2023-02-19T05:19:15.018Z,244.50
2023-02-19T05:20:16.093Z,258.10
2023-02-19T05:21:16.458Z,279.60
2023-02-19T05:22:17.316Z,286.00
2023-02-19T05:23:18.099Z,278.50
2023-02-19T05:24:18.982Z,252.70
2023-02-19T05:25:20.090Z,250.60
2023-02-19T05:26:20.445Z,253.70
2023-02-19T05:27:21.304Z,250.00
2023-02-19T05:28:22.158Z,279.30
2023-02-19T05:29:23.039Z,299.40
2023-02-19T05:30:23.913Z,235.40
2023-02-19T05:31:24.879Z,231.50
2023-02-19T05:32:25.690Z,214.10
2023-02-19T05:33:26.568Z,242.80
2023-02-19T05:34:27.418Z,237.50
2023-02-19T05:35:28.301Z,219.50
2023-02-19T05:36:29.147Z,208.30
2023-02-19T05:37:30.031Z,234.10
2023-02-19T05:38:30.841Z,227.40
2023-02-19T05:39:31.696Z,213.80
2023-02-19T05:40:32.559Z,231.50
2023-02-19T05:41:33.425Z,241.70
2023-02-19T05:42:34.265Z,204.10
2023-02-19T05:43:35.124Z,239.80
2023-02-19T05:44:35.977Z,251.30
2023-02-19T05:45:36.842Z,230.30
2023-02-19T05:46:37.712Z,236.50
2023-02-19T05:47:38.542Z,222.10
2023-02-19T05:48:39.407Z,252.20
2023-02-19T05:49:40.264Z,260.90
2023-02-19T05:50:41.594Z,225.60
2023-02-19T05:51:41.951Z,234.60
2023-02-19T05:52:42.823Z,229.90
2023-02-19T05:53:43.658Z,233.90
2023-02-19T05:54:44.544Z,225.20
2023-02-19T05:55:45.586Z,234.90
2023-02-19T05:56:45.943Z,234.10
2023-02-19T05:57:46.804Z,211.40
2023-02-19T05:58:47.666Z,239.20
2023-02-19T05:59:48.515Z,228.00
2023-02-19T06:00:49.585Z,214.90
2023-02-19T06:01:49.976Z,232.40
2023-02-19T06:02:50.869Z,226.80
2023-02-19T06:03:51.739Z,237.00
2023-02-19T06:04:52.621Z,222.40
2023-02-19T06:05:53.585Z,236.60
2023-02-19T06:06:54.441Z,209.80
2023-02-19T06:07:55.313Z,230.00
2023-02-19T06:08:56.127Z,224.80
2023-02-19T06:09:56.957Z,231.20
2023-02-19T06:10:58.096Z,229.00
2023-02-19T06:11:58.440Z,206.70
2023-02-19T06:12:59.315Z,221.30
2023-02-19T06:14:00.198Z,209.80
2023-02-19T06:15:01.016Z,212.20
2023-02-19T06:16:01.933Z,216.60
2023-02-19T06:17:02.770Z,212.70
2023-02-19T06:18:03.590Z,223.30
2023-02-19T06:19:04.430Z,215.00
2023-02-19T06:20:05.286Z,209.90
2023-02-19T06:21:06.154Z,200.80
2023-02-19T06:22:07.013Z,223.90
2023-02-19T06:23:07.876Z,213.50
2023-02-19T06:24:08.669Z,216.40
2023-02-19T06:25:09.526Z,214.50
2023-02-19T06:26:10.597Z,206.00
2023-02-19T06:27:10.941Z,224.30
2023-02-19T06:28:11.799Z,218.00
2023-02-19T06:29:12.648Z,233.70
2023-02-19T06:30:13.524Z,231.30
2023-02-19T06:31:15.020Z,233.30
2023-02-19T06:32:15.069Z,244.60
2023-02-19T06:33:15.436Z,232.60
2023-02-19T06:34:16.292Z,226.70
2023-02-19T06:35:17.147Z,234.20
2023-02-19T06:36:18.112Z,209.30
2023-02-19T06:37:18.975Z,247.40
2023-02-19T06:38:19.852Z,239.20
2023-02-19T06:39:20.654Z,225.60
2023-02-19T06:40:21.521Z,218.50
2023-02-19T06:41:22.586Z,244.50
2023-02-19T06:42:22.939Z,222.60
2023-02-19T06:43:23.796Z,225.10
2023-02-19T06:44:24.648Z,233.60
2023-02-19T06:45:25.499Z,232.90
2023-02-19T06:46:26.471Z,228.30
2023-02-19T06:47:27.285Z,227.50
2023-02-19T06:48:28.149Z,241.90
2023-02-19T06:49:28.998Z,267.40
2023-02-19T06:50:29.981Z,213.30
2023-02-19T06:51:31.091Z,214.80
2023-02-19T06:52:31.442Z,240.20
2023-02-19T06:53:32.314Z,223.50
2023-02-19T06:54:33.086Z,210.40
2023-02-19T06:55:33.938Z,226.00
2023-02-19T06:56:35.091Z,227.90
2023-02-19T06:57:35.473Z,221.10
2023-02-19T06:58:36.319Z,247.50
2023-02-19T06:59:37.174Z,230.80
2023-02-19T07:00:38.098Z,217.20
2023-02-19T07:01:38.918Z,251.40
2023-02-19T07:02:39.768Z,242.30
2023-02-19T07:03:40.621Z,236.20
2023-02-19T07:04:41.485Z,241.40
2023-02-19T07:05:42.339Z,231.70
2023-02-19T07:06:43.212Z,228.20
2023-02-19T07:07:44.058Z,214.50
2023-02-19T07:08:44.930Z,217.10
2023-02-19T07:09:45.731Z,237.90
2023-02-19T07:10:46.606Z,207.10
2023-02-19T07:11:47.581Z,188.20
2023-02-19T07:12:48.436Z,211.30
2023-02-19T07:13:49.292Z,202.80
2023-02-19T07:14:50.162Z,209.70
2023-02-19T07:15:52.207Z,233.40
2023-02-19T07:16:52.082Z,222.00
2023-02-19T07:17:52.440Z,209.50
2023-02-19T07:18:53.323Z,179.00
2023-02-19T07:19:54.187Z,184.50
2023-02-19T07:20:55.045Z,212.90
2023-02-19T07:21:56.580Z,207.30
2023-02-19T07:22:56.445Z,200.10
2023-02-19T07:23:57.309Z,214.00
2023-02-19T07:24:58.088Z,212.90
2023-02-19T07:25:58.950Z,185.70
2023-02-19T07:27:00.096Z,193.40
2023-02-19T07:28:00.442Z,192.60
2023-02-19T07:29:01.297Z,208.40
2023-02-19T07:30:02.438Z,197.80
2023-02-19T07:31:02.844Z,195.00
2023-02-19T07:32:04.132Z,199.00
2023-02-19T07:33:04.432Z,200.60
2023-02-19T07:34:05.292Z,208.70
2023-02-19T07:35:06.148Z,202.20
2023-02-19T07:36:06.991Z,200.60
2023-02-19T07:37:07.874Z,211.50
2023-02-19T07:38:08.729Z,206.10
2023-02-19T07:39:10.252Z,192.50
2023-02-19T07:40:10.076Z,190.00
2023-02-19T07:41:11.186Z,183.70
2023-02-19T07:42:12.087Z,176.30
2023-02-19T07:43:12.435Z,201.00
2023-02-19T07:44:13.288Z,195.30
2023-02-19T07:45:14.142Z,188.50
2023-02-19T07:46:15.009Z,184.10
2023-02-19T07:47:16.091Z,198.10
2023-02-19T07:48:16.480Z,203.90
2023-02-19T07:49:17.327Z,206.60
2023-02-19T07:50:18.173Z,208.60
2023-02-19T07:51:19.119Z,221.70
2023-02-19T07:52:19.954Z,202.80
2023-02-19T07:53:20.813Z,190.90
2023-02-19T07:54:21.686Z,189.50
2023-02-19T07:55:22.537Z,175.80
2023-02-19T07:56:23.388Z,193.60
2023-02-19T07:57:24.581Z,202.00
2023-02-19T07:58:24.953Z,185.90
2023-02-19T07:59:25.812Z,192.50
2023-02-19T08:00:26.815Z,197.70
2023-02-19T08:01:27.647Z,208.70
2023-02-19T08:02:28.482Z,209.90
2023-02-19T08:03:29.421Z,194.20
2023-02-19T08:04:30.199Z,197.90
2023-02-19T08:05:31.054Z,199.80
2023-02-19T08:06:31.909Z,183.90
2023-02-19T08:07:33.090Z,184.80
2023-02-19T08:08:33.453Z,189.70
2023-02-19T08:09:34.321Z,178.90
2023-02-19T08:10:37.068Z,181.90
2023-02-19T08:11:35.918Z,174.50
2023-02-19T08:12:36.803Z,167.40
2023-02-19T08:13:39.618Z,180.80
2023-02-19T08:14:39.550Z,201.50
2023-02-19T08:15:40.496Z,185.40
2023-02-19T08:16:43.282Z,189.30
2023-02-19T08:17:42.066Z,197.60
2023-02-19T08:18:41.416Z,158.00
2023-02-19T08:19:42.269Z,182.50
2023-02-19T08:20:43.140Z,203.50
2023-02-19T08:21:43.972Z,199.50
2023-02-19T08:22:44.833Z,179.90
2023-02-19T08:23:45.690Z,188.40
2023-02-19T08:24:46.558Z,183.80
2023-02-19T08:25:47.341Z,178.10
2023-02-19T08:26:48.195Z,165.00
2023-02-19T08:27:49.065Z,163.30
2023-02-19T08:28:49.933Z,155.50
2023-02-19T08:29:50.780Z,162.10
2023-02-19T08:30:51.796Z,163.00
2023-02-19T08:31:52.199Z,155.50
2023-02-19T08:32:53.083Z,134.40
2023-02-19T08:33:53.946Z,148.70
2023-02-19T08:34:54.799Z,141.90
2023-02-19T08:35:55.658Z,155.30
2023-02-19T08:36:56.516Z,170.40
2023-02-19T08:37:57.598Z,136.80
2023-02-19T08:38:57.952Z,124.00
2023-02-19T08:39:58.823Z,125.80
2023-02-19T08:40:59.617Z,132.00
2023-02-19T08:42:00.460Z,144.80
2023-02-19T08:43:01.575Z,128.70
2023-02-19T08:44:01.930Z,117.70
2023-02-19T08:45:02.783Z,122.40
2023-02-19T08:46:03.725Z,116.00
2023-02-19T08:47:04.548Z,104.90
2023-02-19T08:48:05.576Z,104.70
2023-02-19T08:49:05.924Z,109.00
2023-02-19T08:50:06.784Z,116.70
2023-02-19T08:51:07.637Z,115.10
2023-02-19T08:52:08.487Z,116.70
2023-02-19T08:53:09.594Z,127.60
2023-02-19T08:54:09.951Z,107.30
2023-02-19T08:55:10.828Z,92.70
2023-02-19T08:56:11.366Z,88.50
2023-02-19T08:57:12.198Z,81.20
2023-02-19T08:58:13.058Z,77.20
2023-02-19T08:59:13.912Z,70.90
2023-02-19T09:00:14.768Z,73.10
2023-02-19T09:01:15.945Z,73.30
2023-02-19T09:02:16.409Z,68.40
2023-02-19T09:03:17.570Z,76.70
2023-02-19T09:04:17.961Z,84.00
2023-02-19T09:05:18.793Z,66.60
2023-02-19T09:06:19.646Z,78.30
2023-02-19T09:07:20.499Z,66.30
2023-02-19T09:08:21.590Z,53.20
2023-02-19T09:09:21.949Z,46.90
2023-02-19T09:10:22.835Z,45.50
2023-02-19T09:11:23.613Z,47.90
2023-02-19T09:12:24.489Z,45.40
2023-02-19T09:13:25.566Z,47.70
2023-02-19T09:14:25.919Z,49.10
2023-02-19T09:15:26.823Z,50.00
2023-02-19T09:16:27.636Z,50.00
2023-02-19T09:17:28.483Z,51.00
2023-02-19T09:18:29.571Z,47.30
2023-02-19T09:19:29.925Z,50.10
2023-02-19T09:20:30.778Z,56.40
2023-02-19T09:21:31.647Z,57.70
2023-02-19T09:22:32.536Z,57.60
2023-02-19T09:23:33.592Z,57.90
2023-02-19T09:24:33.958Z,62.00
2023-02-19T09:25:34.856Z,65.60
2023-02-19T09:26:37.731Z,58.00
2023-02-19T09:27:36.390Z,63.00
2023-02-19T09:28:37.569Z,62.90
2023-02-19T09:29:37.925Z,72.20
2023-02-19T09:30:38.794Z,67.80
2023-02-19T09:31:39.779Z,67.80
2023-02-19T09:32:40.609Z,70.10
2023-02-19T09:33:41.571Z,62.70
2023-02-19T09:34:42.428Z,60.60
2023-02-19T09:35:43.305Z,68.60
2023-02-19T09:36:44.163Z,66.60
2023-02-19T09:37:45.021Z,59.60
2023-02-19T09:38:45.908Z,55.40
2023-02-19T09:39:46.767Z,55.30
2023-02-19T09:40:47.636Z,63.40
2023-02-19T09:41:48.414Z,66.40
2023-02-19T09:42:49.269Z,62.80
2023-02-19T09:43:50.570Z,56.80
2023-02-19T09:44:50.925Z,60.00
2023-02-19T09:45:51.856Z,63.00
2023-02-19T09:46:52.656Z,61.30
2023-02-19T09:47:53.508Z,67.70
2023-02-19T09:48:54.569Z,57.50
2023-02-19T09:49:54.927Z,58.60
2023-02-19T09:50:55.804Z,63.70
2023-02-19T09:51:56.672Z,69.20
2023-02-19T09:52:57.538Z,70.60
2023-02-19T09:53:58.573Z,66.20
2023-02-19T09:54:58.925Z,69.80
2023-02-19T09:55:59.793Z,1999.90
2023-02-19T09:57:00.605Z,186.20
2023-02-19T09:58:01.566Z,51.60
2023-02-19T09:59:02.565Z,57.00
2023-02-19T10:00:02.923Z,51.00
2023-02-19T10:01:03.780Z,63.70
2023-02-19T10:02:04.632Z,62.60
2023-02-19T10:03:05.497Z,58.70
2023-02-19T10:04:06.565Z,63.40
2023-02-19T10:05:06.964Z,55.00
2023-02-19T10:06:10.910Z,52.20
2023-02-19T10:07:08.591Z,56.50
2023-02-19T10:08:09.448Z,48.10
2023-02-19T10:09:10.333Z,45.40
2023-02-19T10:10:11.293Z,43.80
2023-02-19T10:11:12.579Z,42.10
2023-02-19T10:12:12.986Z,46.60
2023-02-19T10:13:13.869Z,52.50
2023-02-19T10:14:15.063Z,47.40
2023-02-19T10:15:15.417Z,43.60
2023-02-19T10:16:16.369Z,39.50
2023-02-19T10:17:17.215Z,40.80
2023-02-19T10:18:18.072Z,46.40
2023-02-19T10:19:19.067Z,46.70
2023-02-19T10:20:19.496Z,41.80
2023-02-19T10:21:20.319Z,42.80
2023-02-19T10:22:21.212Z,45.90
2023-02-19T10:23:22.055Z,40.20
2023-02-19T10:24:22.929Z,39.30
2023-02-19T10:25:23.774Z,53.60
2023-02-19T10:26:24.647Z,49.50
2023-02-19T10:27:25.419Z,55.60
2023-02-19T10:28:26.274Z,52.50
2023-02-19T10:29:27.564Z,55.00
2023-02-19T10:30:27.975Z,43.10
2023-02-19T10:31:28.904Z,47.80
2023-02-19T10:32:29.704Z,50.80
2023-02-19T10:33:30.560Z,50.90
2023-02-19T10:34:31.566Z,50.00
2023-02-19T10:35:31.916Z,57.90
2023-02-19T10:36:32.796Z,55.30
2023-02-19T10:37:33.627Z,48.40
2023-02-19T10:38:34.485Z,58.60
2023-02-19T10:39:35.599Z,50.40
2023-02-19T10:40:35.953Z,47.70
2023-02-19T10:41:36.836Z,40.80
2023-02-19T10:42:37.639Z,38.10
2023-02-19T10:43:38.493Z,35.70
2023-02-19T10:44:39.351Z,32.80
2023-02-19T10:45:40.201Z,34.70
2023-02-19T10:46:41.099Z,30.20
2023-02-19T10:47:41.927Z,35.10
2023-02-19T10:48:42.771Z,30.60
2023-02-19T10:49:43.632Z,29.80
2023-02-19T10:50:44.501Z,27.70
2023-02-19T10:51:45.354Z,26.90
2023-02-19T10:52:46.235Z,28.30
2023-02-19T10:53:47.088Z,28.40
2023-02-19T10:54:47.945Z,26.20
2023-02-19T10:55:48.797Z,27.60
2023-02-19T10:56:49.666Z,33.60
2023-02-19T10:57:50.460Z,32.30
2023-02-19T10:58:51.305Z,35.60
2023-02-19T10:59:52.564Z,32.80
2023-02-19T11:00:52.916Z,31.80
2023-02-19T11:01:53.829Z,33.40
2023-02-19T11:02:54.647Z,42.20
2023-02-19T11:03:55.498Z,38.00
2023-02-19T11:04:56.561Z,31.00
2023-02-19T11:05:56.916Z,33.20
2023-02-19T11:06:57.805Z,32.30
2023-02-19T11:07:58.642Z,29.70
2023-02-19T11:08:59.506Z,32.40
2023-02-19T11:10:00.602Z,32.20
2023-02-19T11:11:00.950Z,33.70
2023-02-19T11:12:01.833Z,35.10
2023-02-19T11:13:02.653Z,35.70
2023-02-19T11:14:03.498Z,29.40
2023-02-19T11:15:04.569Z,29.50
2023-02-19T11:16:04.954Z,26.80
2023-02-19T11:17:05.843Z,31.20
2023-02-19T11:18:06.627Z,25.70
2023-02-19T11:19:07.481Z,24.70
2023-02-19T11:20:08.562Z,28.10
2023-02-19T11:21:09.185Z,27.00
2023-02-19T11:22:09.711Z,31.10
2023-02-19T11:23:10.560Z,29.50
2023-02-19T11:24:11.414Z,29.30
2023-02-19T11:25:12.562Z,27.20
2023-02-19T11:26:12.920Z,22.20
2023-02-19T11:27:13.802Z,25.30
2023-02-19T11:28:14.578Z,21.30
2023-02-19T11:29:15.430Z,20.40
2023-02-19T11:30:16.383Z,21.50
2023-02-19T11:31:17.335Z,19.40
2023-02-19T11:32:18.305Z,25.40
2023-02-19T11:33:18.653Z,20.00
2023-02-19T11:34:19.504Z,22.10
2023-02-19T11:35:20.372Z,21.60
2023-02-19T11:36:21.220Z,25.60
2023-02-19T11:37:22.073Z,19.90
2023-02-19T11:38:22.942Z,20.70
2023-02-19T11:39:23.793Z,17.90
2023-02-19T11:40:24.692Z,20.40
2023-02-19T11:41:25.553Z,17.40
2023-02-19T11:42:29.182Z,22.90
2023-02-19T11:43:27.244Z,22.20
2023-02-19T11:44:28.082Z,27.90
2023-02-19T11:45:28.941Z,21.20
2023-02-19T11:46:29.821Z,20.00
2023-02-19T11:47:30.661Z,19.00
2023-02-19T11:48:31.520Z,17.30
2023-02-19T11:49:32.371Z,17.00
2023-02-19T11:50:33.568Z,16.80
2023-02-19T11:51:33.925Z,17.60
2023-02-19T11:52:34.774Z,17.50
2023-02-19T11:53:35.628Z,16.60
2023-02-19T11:54:36.487Z,14.90
2023-02-19T11:55:37.566Z,17.30
2023-02-19T11:56:37.920Z,16.60
2023-02-19T11:57:38.788Z,15.50
2023-02-19T11:58:39.563Z,15.90
2023-02-19T11:59:40.420Z,14.90
2023-02-19T12:00:41.290Z,16.20
2023-02-19T12:01:42.166Z,16.90
2023-02-19T12:02:42.984Z,17.20
2023-02-19T12:03:43.839Z,14.90
2023-02-19T12:04:44.769Z,18.30
2023-02-19T12:05:46.065Z,15.80
2023-02-19T12:06:46.414Z,17.30
2023-02-19T12:07:47.273Z,17.40
2023-02-19T12:08:48.129Z,13.70
2023-02-19T12:09:48.980Z,14.50
2023-02-19T12:10:50.078Z,17.10
2023-02-19T12:11:50.444Z,14.50
2023-02-19T12:12:51.340Z,16.50
2023-02-19T12:13:52.188Z,17.20
2023-02-19T12:14:53.041Z,17.60
2023-02-19T12:16:54.853Z,14.40
2023-02-19T12:17:55.706Z,14.10
2023-02-19T12:18:56.582Z,16.50
2023-02-19T12:19:57.426Z,15.00
2023-02-19T12:20:58.580Z,17.10
2023-02-19T12:21:58.938Z,17.90
2023-02-19T12:22:59.801Z,13.60
2023-02-19T12:24:00.655Z,17.20
2023-02-19T12:25:01.514Z,17.90
2023-02-19T12:26:02.554Z,14.40
2023-02-19T12:27:02.910Z,16.10
2023-02-19T12:28:03.785Z,14.40
2023-02-19T12:29:04.574Z,12.60
2023-02-19T12:30:05.487Z,12.50
2023-02-19T12:31:06.626Z,12.20
2023-02-19T12:32:07.014Z,12.30
2023-02-19T12:33:07.820Z,13.50
2023-02-19T12:34:08.670Z,13.40
2023-02-19T12:35:09.528Z,14.20
2023-02-19T12:36:10.912Z,13.80
2023-02-19T12:37:11.318Z,14.20
2023-02-19T12:38:12.170Z,11.80
2023-02-19T12:39:13.024Z,13.60
2023-02-19T12:40:13.871Z,15.80
2023-02-19T12:41:15.068Z,16.00
2023-02-19T12:42:15.436Z,15.60
2023-02-19T12:43:16.314Z,13.70
2023-02-19T12:44:17.119Z,12.60
2023-02-19T12:45:17.970Z,12.80
2023-02-19T12:46:19.089Z,14.40
2023-02-19T12:47:19.414Z,17.30
2023-02-19T12:48:20.272Z,16.20
2023-02-19T12:49:21.157Z,19.50
2023-02-19T12:50:22.043Z,23.60
2023-02-19T12:51:23.055Z,20.40
2023-02-19T12:52:23.421Z,19.30
2023-02-19T12:53:24.290Z,20.40
2023-02-19T12:54:25.139Z,17.50
2023-02-19T12:55:25.990Z,18.60
2023-02-19T12:56:26.858Z,20.10
2023-02-19T12:57:27.712Z,19.50
2023-02-19T12:58:28.577Z,21.70
2023-02-19T12:59:29.354Z,24.80